createdAt,value
2023-03-15T00:00:31.829Z,99.9
2023-03-15T00:04:34.133Z,99.9
2023-03-15T00:06:35.273Z,99.9
2023-03-15T00:10:37.526Z,99.9
2023-03-15T00:12:38.699Z,99.9
2023-03-15T00:16:44.208Z,99.9
2023-03-15T00:18:45.404Z,99.9
2023-03-15T00:20:46.474Z,99.9
2023-03-15T00:22:47.602Z,99.9
2023-03-15T00:24:48.767Z,99.9
2023-03-15T00:26:49.881Z,99.9
2023-03-15T00:28:54.272Z,99.9
2023-03-15T00:30:55.455Z,99.9
2023-03-15T00:32:56.580Z,99.9
2023-03-15T00:34:57.693Z,99.9
2023-03-15T00:36:58.795Z,99.9
2023-03-15T00:47:07.691Z,99.9
2023-03-15T00:49:30.029Z,99.9
2023-03-15T00:51:32.705Z,99.9
2023-03-15T00:53:33.773Z,99.9
2023-03-15T00:55:38.184Z,99.9
2023-03-15T00:57:39.325Z,99.9
2023-03-15T00:59:40.455Z,99.9
2023-03-15T01:01:41.609Z,99.9
2023-03-15T01:03:42.715Z,99.9
2023-03-15T01:05:43.833Z,99.9
2023-03-15T01:09:49.390Z,99.9
2023-03-15T01:11:50.514Z,99.9
2023-03-15T01:15:52.841Z,99.9
2023-03-15T01:17:53.899Z,99.9
2023-03-15T01:19:55.076Z,99.9
2023-03-15T01:24:00.600Z,99.9
2023-03-15T01:26:01.705Z,99.9
2023-03-15T01:28:02.870Z,99.9
2023-03-15T01:30:04.005Z,99.9
2023-03-15T01:32:05.123Z,99.9
2023-03-15T01:34:06.255Z,99.9
2023-03-15T01:36:07.708Z,99.9
2023-03-15T01:38:12.046Z,99.9
2023-03-15T01:40:13.174Z,99.9
2023-03-15T01:43:16.491Z,99.9
2023-03-15T01:45:17.660Z,99.9
2023-03-15T01:47:18.773Z,99.9
2023-03-15T01:49:19.886Z,99.9
2023-03-15T01:51:24.354Z,99.9
2023-03-15T01:53:25.418Z,99.9
2023-03-15T01:57:27.660Z,99.9
2023-03-15T01:59:28.797Z,99.9
2023-03-15T02:01:29.899Z,99.9
2023-03-15T02:03:31.035Z,99.9
2023-03-15T02:05:35.424Z,99.9
2023-03-15T02:07:36.534Z,99.9
2023-03-15T02:09:37.686Z,99.9
2023-03-15T02:11:38.799Z,99.9
2023-03-15T02:13:39.892Z,99.9
2023-03-15T02:15:41.037Z,99.9
2023-03-15T02:17:42.147Z,99.9
2023-03-15T02:19:46.527Z,99.9
2023-03-15T02:21:47.673Z,99.9
2023-03-15T02:23:48.791Z,99.9
2023-03-15T02:25:49.898Z,99.9
2023-03-15T02:29:52.173Z,99.9
2023-03-15T02:31:53.327Z,99.9
2023-03-15T02:33:57.669Z,99.9
2023-03-15T02:39:02.123Z,99.9
2023-03-15T02:41:03.249Z,99.9
2023-03-15T02:43:04.360Z,99.9
2023-03-15T02:45:05.505Z,99.9
2023-03-15T02:47:09.923Z,99.9
2023-03-15T02:49:11.044Z,99.9
2023-03-15T02:51:12.174Z,99.9
2023-03-15T02:53:13.287Z,99.9
2023-03-15T02:55:14.406Z,99.9
2023-03-15T02:59:16.684Z,99.9
2023-03-15T03:03:22.215Z,99.9
2023-03-15T03:05:23.322Z,99.9
2023-03-15T03:07:24.465Z,99.9
2023-03-15T03:09:25.602Z,99.9
2023-03-15T03:11:26.706Z,99.9
2023-03-15T03:13:27.835Z,99.9
2023-03-15T03:15:32.232Z,99.9
2023-03-15T03:17:33.354Z,99.9
2023-03-15T03:19:34.481Z,99.9
2023-03-15T03:21:35.611Z,99.9
2023-03-15T03:23:36.743Z,99.9
2023-03-15T03:25:37.860Z,99.9
2023-03-15T03:27:39.007Z,99.9
2023-03-15T03:29:43.366Z,99.9
2023-03-15T03:31:44.554Z,99.9
2023-03-15T03:33:45.633Z,99.9
2023-03-15T03:36:48.928Z,99.9
2023-03-15T03:38:50.080Z,99.9
2023-03-15T03:40:51.198Z,99.9
2023-03-15T03:42:55.577Z,99.9
2023-03-15T03:46:57.826Z,99.9
2023-03-15T03:48:58.955Z,99.9
2023-03-15T03:51:00.105Z,99.9
2023-03-15T03:53:01.180Z,99.9
2023-03-15T03:55:02.325Z,99.9
2023-03-15T03:57:06.711Z,99.9
2023-03-15T03:59:07.822Z,99.9
2023-03-15T04:01:08.948Z,99.9
2023-03-15T04:03:10.053Z,99.9
2023-03-15T04:07:12.327Z,99.9
2023-03-15T04:09:13.461Z,99.9
2023-03-15T04:11:17.973Z,99.9
2023-03-15T04:19:22.327Z,99.9
2023-03-15T04:21:23.449Z,99.9
2023-03-15T04:23:24.580Z,99.9
2023-03-15T04:25:28.962Z,99.9
2023-03-15T04:29:31.210Z,99.9
2023-03-15T04:31:53.755Z,99.9
2023-03-15T04:33:54.916Z,99.9
2023-03-15T04:35:56.019Z,99.9
2023-03-15T04:40:01.865Z,99.9
2023-03-15T04:42:02.935Z,99.9
2023-03-15T04:44:04.058Z,99.9
2023-03-15T04:46:05.233Z,99.9
2023-03-15T04:48:06.289Z,99.9
2023-03-15T04:50:07.420Z,99.9
2023-03-15T04:52:11.805Z,99.9
2023-03-15T04:54:12.943Z,99.9
2023-03-15T04:56:14.062Z,99.9
2023-03-15T04:58:15.158Z,99.9
2023-03-15T05:00:16.290Z,99.9
2023-03-15T05:04:18.537Z,99.9
2023-03-15T05:06:22.916Z,99.9
2023-03-15T05:08:24.024Z,99.9
2023-03-15T05:10:25.159Z,99.9
2023-03-15T05:12:26.278Z,99.9
2023-03-15T05:14:27.378Z,99.9
2023-03-15T05:16:28.536Z,99.9
2023-03-15T05:18:29.637Z,99.9
2023-03-15T05:20:33.993Z,99.9
2023-03-15T05:22:35.118Z,99.9
2023-03-15T05:24:36.277Z,99.9
2023-03-15T05:25:38.850Z,99.9
2023-03-15T05:29:40.702Z,99.9
2023-03-15T05:31:41.829Z,99.9
2023-03-15T05:33:46.154Z,99.9
2023-03-15T05:35:47.325Z,99.9
2023-03-15T05:37:48.380Z,99.9
2023-03-15T05:41:50.639Z,99.9
2023-03-15T05:45:52.954Z,99.9
2023-03-15T05:51:59.519Z,99.9
2023-03-15T05:56:01.747Z,99.9
2023-03-15T05:58:02.877Z,99.9
2023-03-15T06:00:03.991Z,99.9
2023-03-15T06:02:08.398Z,99.9
2023-03-15T06:04:09.578Z,99.9
2023-03-15T06:06:10.633Z,99.9
2023-03-15T06:08:11.777Z,99.9
2023-03-15T06:10:12.889Z,99.9
2023-03-15T06:12:13.989Z,99.9
2023-03-15T06:14:15.120Z,99.9
2023-03-15T06:16:19.533Z,99.9
2023-03-15T06:18:20.577Z,99.9
2023-03-15T06:20:21.720Z,99.9
2023-03-15T06:21:23.916Z,99.9
2023-03-15T06:23:25.012Z,99.9
2023-03-15T06:25:26.122Z,99.9
2023-03-15T06:27:27.252Z,99.9
2023-03-15T06:29:31.632Z,99.9
2023-03-15T06:31:32.726Z,99.9
2023-03-15T06:33:33.817Z,99.9
2023-03-15T06:35:34.972Z,99.9
2023-03-15T06:37:36.074Z,99.9
2023-03-15T06:39:37.167Z,99.9
2023-03-15T06:41:39.812Z,99.9
2023-03-15T06:43:44.134Z,99.9
2023-03-15T06:45:45.281Z,99.9
2023-03-15T06:47:46.376Z,99.9
2023-03-15T06:51:48.539Z,99.9
2023-03-15T06:53:49.656Z,99.9
2023-03-15T06:57:55.166Z,99.9
2023-03-15T07:01:57.379Z,99.9
2023-03-15T07:03:58.510Z,99.9
2023-03-15T07:12:06.193Z,99.9
2023-03-15T07:14:07.334Z,99.9
2023-03-15T07:21:12.860Z,99.9
2023-03-15T07:23:13.984Z,99.9
2023-03-15T07:27:19.712Z,99.9
2023-03-15T07:31:21.733Z,99.9
2023-03-15T07:33:22.911Z,99.9
2023-03-15T07:35:23.990Z,99.9
2023-03-15T07:37:25.100Z,99.9
2023-03-15T07:45:32.875Z,99.9
2023-03-15T07:47:34.007Z,99.9
2023-03-15T07:49:35.133Z,99.9
2023-03-15T07:51:36.278Z,99.9
2023-03-15T07:53:40.661Z,99.9
2023-03-15T07:55:41.807Z,99.9
2023-03-15T07:57:42.934Z,99.9
2023-03-15T07:59:44.093Z,99.9
2023-03-15T08:01:45.224Z,99.9
2023-03-15T08:03:46.355Z,99.9
2023-03-15T08:05:47.473Z,99.9
2023-03-15T08:07:51.874Z,99.9
2023-03-15T08:09:53.028Z,99.9
2023-03-15T08:11:54.164Z,99.9
2023-03-15T08:14:22.603Z,99.9
2023-03-15T08:26:32.691Z,99.9
2023-03-15T08:28:33.825Z,99.9
2023-03-15T08:30:35.008Z,99.9
2023-03-15T08:36:41.760Z,99.9
2023-03-15T08:38:42.837Z,99.9
2023-03-15T08:40:44.038Z,99.9
2023-03-15T08:42:45.154Z,99.9
2023-03-15T08:46:47.592Z,99.9
2023-03-15T08:48:51.943Z,99.9
2023-03-15T08:50:53.090Z,99.9
2023-03-15T08:54:55.454Z,99.9
2023-03-15T08:56:56.616Z,99.9
2023-03-15T08:58:57.786Z,99.9
2023-03-15T09:00:59.033Z,99.8
2023-03-15T09:03:03.425Z,98
2023-03-15T09:05:04.622Z,97.6
2023-03-15T09:07:05.815Z,97.8
2023-03-15T09:12:10.486Z,93.3
2023-03-15T09:14:11.658Z,93.5
2023-03-15T09:16:16.149Z,87.8
2023-03-15T09:18:17.369Z,88.6
2023-03-15T09:20:18.581Z,80.5
2023-03-15T09:22:34.812Z,79.8
2023-03-15T09:24:21.009Z,79.9
2023-03-15T09:26:22.241Z,79.9
2023-03-15T09:28:23.464Z,79.7
2023-03-15T09:30:27.925Z,80
2023-03-15T09:32:29.225Z,80.1
2023-03-15T09:34:39.860Z,78.9
2023-03-15T09:38:32.730Z,65.7
2023-03-15T09:40:33.981Z,65.2
2023-03-15T09:42:35.190Z,72.2
2023-03-15T09:44:39.688Z,72.5
2023-03-15T09:46:42.467Z,72.3
2023-03-15T09:48:42.123Z,71.7
2023-03-15T09:50:43.370Z,71.4
2023-03-15T09:52:44.591Z,74.4
2023-03-15T09:54:45.801Z,66.8
2023-03-15T09:56:47.069Z,65.2
2023-03-15T09:58:51.535Z,62.5
2023-03-15T10:00:52.762Z,62.2
2023-03-15T10:02:54.004Z,62
2023-03-15T10:12:04.500Z,54.4
2023-03-15T10:16:07.109Z,53.9
2023-03-15T10:26:16.461Z,45.9
2023-03-15T10:30:18.949Z,46.3
2023-03-15T10:34:21.413Z,49.9
2023-03-15T10:36:22.709Z,49.7
2023-03-15T10:40:28.398Z,50.4
2023-03-15T10:48:33.318Z,47.7
2023-03-15T10:50:34.567Z,47.3
2023-03-15T10:52:35.840Z,40.1
2023-03-15T10:54:40.266Z,41.3
2023-03-15T10:56:41.536Z,41.4
2023-03-15T10:58:42.772Z,41.5
2023-03-15T10:59:45.005Z,41.3
2023-03-15T11:01:46.279Z,39.7
2023-03-15T11:03:47.381Z,39
2023-03-15T11:05:48.606Z,38.9
2023-03-15T11:07:52.916Z,36.6
2023-03-15T11:09:54.045Z,36.8
2023-03-15T11:11:55.171Z,36.5
2023-03-15T11:13:56.285Z,36.6
2023-03-15T11:15:57.453Z,36.4
2023-03-15T11:24:05.206Z,43.4
2023-03-15T11:26:06.382Z,42.5
2023-03-15T11:28:07.621Z,42.1
2023-03-15T11:30:08.865Z,41.9
2023-03-15T11:32:10.102Z,36.4
2023-03-15T11:34:11.297Z,37.1
2023-03-15T11:36:15.868Z,38.9
2023-03-15T11:38:17.081Z,39.7
2023-03-15T11:40:19.159Z,43.6
2023-03-15T11:44:21.488Z,45.4
2023-03-15T11:46:22.754Z,46.5
2023-03-15T11:48:24.005Z,50.5
2023-03-15T11:50:28.529Z,50.1
2023-03-15T11:52:29.827Z,50.2
2023-03-15T11:54:31.005Z,50.1
2023-03-15T11:56:59.344Z,48.2
2023-03-15T11:59:01.169Z,48.2
2023-03-15T12:05:17.595Z,49.5
2023-03-15T12:07:08.779Z,49.4
2023-03-15T12:09:09.996Z,48.9
2023-03-15T12:13:12.448Z,48.7
2023-03-15T12:15:13.714Z,48.5
2023-03-15T12:25:23.080Z,48.4
2023-03-15T12:29:25.532Z,48.1
2023-03-15T12:33:32.815Z,46.9
2023-03-15T12:35:34.061Z,47.2
2023-03-15T12:37:35.282Z,47.2
2023-03-15T12:39:36.466Z,47.1
2023-03-15T12:41:37.666Z,47.3
2023-03-15T12:43:38.905Z,47.2
2023-03-15T12:45:43.380Z,47.5
2023-03-15T12:47:44.622Z,48.3
2023-03-15T12:49:45.850Z,49.3
2023-03-15T12:50:48.096Z,50
2023-03-15T12:52:49.288Z,50.1
2023-03-15T13:07:01.633Z,47.7
2023-03-15T13:09:02.851Z,47.4
2023-03-15T13:11:04.069Z,46.7
2023-03-15T13:13:08.570Z,46.4
2023-03-15T13:15:09.782Z,45.7
2023-03-15T13:17:11.013Z,45.2
2023-03-15T13:19:12.276Z,44.4
2023-03-15T13:21:13.470Z,44.1
2023-03-15T13:23:14.743Z,43.3
2023-03-15T13:25:15.975Z,42.6
2023-03-15T13:27:20.442Z,43.4
2023-03-15T13:29:21.655Z,43.6
2023-03-15T13:31:23.016Z,44
2023-03-15T13:33:24.633Z,44.2
2023-03-15T13:35:25.374Z,43.7
2023-03-15T13:37:26.569Z,43.7
2023-03-15T13:39:27.774Z,43.2
2023-03-15T13:41:32.260Z,42.8
2023-03-15T13:43:33.502Z,42.2
2023-03-15T13:45:34.725Z,42.6
2023-03-15T13:46:37.002Z,42
2023-03-15T13:48:38.190Z,41.9
2023-03-15T13:50:39.390Z,42.5
2023-03-15T13:56:49.745Z,41.4
2023-03-15T13:58:47.542Z,40.8
2023-03-15T14:00:48.754Z,40.8
2023-03-15T14:02:50.015Z,40.9
2023-03-15T14:04:51.241Z,41.4
2023-03-15T14:06:52.448Z,41.5
2023-03-15T14:08:56.937Z,40
2023-03-15T14:10:58.149Z,38.6
2023-03-15T14:12:59.369Z,38
2023-03-15T14:15:00.604Z,37.8
2023-03-15T14:17:05.875Z,38.1
2023-03-15T14:19:03.076Z,38.6
2023-03-15T14:21:04.303Z,38.9
2023-03-15T14:23:08.792Z,40.2
2023-03-15T14:25:10.053Z,40.7
2023-03-15T14:27:11.740Z,40.7
2023-03-15T14:29:12.487Z,40.9
2023-03-15T14:31:13.799Z,41.1
2023-03-15T14:33:14.926Z,41.1
2023-03-15T14:35:16.184Z,40.7
2023-03-15T14:37:21.518Z,39.8
2023-03-15T14:39:21.901Z,39.2
2023-03-15T14:41:23.113Z,38.9
2023-03-15T14:44:26.595Z,38.4
2023-03-15T14:46:27.826Z,38.5
2023-03-15T14:48:29.082Z,38.7
2023-03-15T14:50:33.605Z,39.1
2023-03-15T14:52:34.784Z,39.4
2023-03-15T14:54:35.993Z,39.4
2023-03-15T14:56:37.275Z,39.5
2023-03-15T15:02:41.027Z,39.7
2023-03-15T15:04:45.408Z,41.9
2023-03-15T15:06:46.639Z,42.3
2023-03-15T15:08:47.898Z,42.7
2023-03-15T15:10:49.095Z,43.2
2023-03-15T15:12:56.471Z,43.2
2023-03-15T15:14:51.568Z,43.7
2023-03-15T15:16:52.850Z,44
2023-03-15T15:18:57.297Z,44.5
2023-03-15T15:20:58.539Z,44.7
2023-03-15T15:22:59.744Z,44.7
2023-03-15T15:25:00.990Z,44.1
2023-03-15T15:27:02.214Z,43.9
2023-03-15T15:29:03.451Z,43.5
2023-03-15T15:31:04.724Z,43.1
2023-03-15T15:37:11.645Z,41.9
2023-03-15T15:39:39.953Z,41
2023-03-15T15:41:41.163Z,40.8
2023-03-15T15:43:42.421Z,40.5
2023-03-15T15:45:46.956Z,40.4
2023-03-15T15:47:48.125Z,40.4
2023-03-15T15:49:49.362Z,40.7
2023-03-15T15:51:50.639Z,41.1
2023-03-15T15:55:53.052Z,41.6
2023-03-15T15:57:54.265Z,42
2023-03-15T15:59:58.755Z,42.6
2023-03-15T16:02:01.917Z,42.7
2023-03-15T16:04:01.195Z,42.8
2023-03-15T16:06:02.425Z,43.2
2023-03-15T16:08:03.636Z,43.7
2023-03-15T16:10:04.869Z,43.6
2023-03-15T16:12:06.109Z,43.5
2023-03-15T16:16:11.872Z,42.3
2023-03-15T16:18:13.014Z,42.2
2023-03-15T16:20:14.239Z,41.9
2023-03-15T16:22:15.445Z,41.7
2023-03-15T16:24:16.676Z,41.5
2023-03-15T16:26:17.897Z,41.4
2023-03-15T16:28:22.368Z,41.4
2023-03-15T16:30:23.606Z,41.5
2023-03-15T16:32:41.008Z,41.9
2023-03-15T16:33:27.119Z,42.7
2023-03-15T16:41:35.185Z,45.1
2023-03-15T16:43:36.411Z,45.4
2023-03-15T16:45:37.636Z,45.8
2023-03-15T16:47:38.867Z,46
2023-03-15T16:49:40.107Z,46.2
2023-03-15T16:51:41.303Z,46.4
2023-03-15T16:53:42.543Z,46.7
2023-03-15T16:55:46.993Z,47.5
2023-03-15T16:57:48.212Z,47.9
2023-03-15T16:59:49.458Z,48.2
2023-03-15T17:01:50.793Z,48.6
2023-03-15T17:03:51.876Z,48.7
2023-03-15T17:05:53.082Z,48.8
2023-03-15T17:07:54.297Z,49.1
2023-03-15T17:11:59.968Z,49.9
2023-03-15T17:14:01.212Z,50.2
2023-03-15T17:16:02.523Z,50.5
2023-03-15T17:18:03.651Z,50.4
2023-03-15T17:20:04.878Z,50.3
2023-03-15T17:22:06.062Z,50.2
2023-03-15T17:24:10.545Z,50.3
2023-03-15T17:26:11.751Z,50.2
2023-03-15T17:28:12.998Z,50.4
2023-03-15T17:29:15.206Z,50.6
2023-03-15T17:31:24.663Z,50.8
2023-03-15T17:33:17.672Z,51
2023-03-15T17:37:23.348Z,51.9
2023-03-15T17:43:26.970Z,52.7
2023-03-15T17:51:35.027Z,53.9
2023-03-15T17:57:42.955Z,55.1
2023-03-15T18:07:58.204Z,57.6
2023-03-15T18:09:49.141Z,58
2023-03-15T18:15:52.750Z,59.9
2023-03-15T18:17:53.922Z,60.6
2023-03-15T18:19:59.919Z,62.1
2023-03-15T18:24:02.306Z,62.8
2023-03-15T18:25:04.527Z,63.2
2023-03-15T18:27:05.744Z,63.6
2023-03-15T18:29:06.909Z,64
2023-03-15T18:31:08.118Z,64.3
2023-03-15T18:33:12.591Z,65.2
2023-03-15T18:35:13.792Z,65.5
2023-03-15T18:37:15.005Z,65.9
2023-03-15T18:39:16.193Z,66.4
2023-03-15T18:47:24.250Z,68.5
2023-03-15T18:51:26.652Z,69.6
2023-03-15T18:53:27.852Z,70.2
2023-03-15T19:05:38.388Z,75
2023-03-15T19:13:43.166Z,78.8
2023-03-15T19:28:25.342Z,81.9
2023-03-15T19:30:26.537Z,82.1
2023-03-15T19:32:27.731Z,82.3
2023-03-15T19:34:28.906Z,82.8
2023-03-15T19:40:32.524Z,87.2
2023-03-15T19:42:36.945Z,88.8
2023-03-15T19:44:38.134Z,89.2
2023-03-15T19:46:39.496Z,89.8
2023-03-15T19:48:40.560Z,90.2
2023-03-15T19:50:41.765Z,90.7
2023-03-15T19:52:42.983Z,90.7
2023-03-15T19:54:44.143Z,90.8
2023-03-15T19:56:48.609Z,91.3
2023-03-15T19:58:49.796Z,91.5
2023-03-15T20:04:53.361Z,93.4
2023-03-15T20:08:55.757Z,94
2023-03-15T20:15:02.578Z,94.6
2023-03-15T20:16:04.905Z,94.8
2023-03-15T20:18:05.992Z,94.8
2023-03-15T20:20:07.128Z,94.9
2023-03-15T20:22:08.338Z,95
2023-03-15T20:24:12.827Z,95.2
2023-03-15T20:26:13.995Z,95.2
2023-03-15T20:28:15.152Z,95.4
2023-03-15T20:30:16.372Z,95.7
2023-03-15T20:32:17.517Z,96.1
2023-03-15T20:34:18.724Z,96.4
2023-03-15T20:36:19.936Z,96.6
2023-03-15T20:38:24.358Z,97.4
2023-03-15T20:40:25.727Z,97.8
2023-03-15T20:42:26.762Z,98.2
2023-03-15T20:44:27.951Z,98.7
2023-03-15T20:46:29.228Z,99.1
2023-03-15T20:48:30.331Z,99.3
2023-03-15T20:50:31.528Z,99.5
2023-03-15T20:52:35.949Z,99.7
2023-03-15T20:54:37.110Z,99.7
2023-03-15T20:56:38.346Z,99.7
2023-03-15T20:58:39.522Z,99.8
2023-03-15T21:00:40.758Z,99.8
2023-03-15T21:02:41.874Z,99.9
2023-03-15T21:04:43.063Z,99.9
2023-03-15T21:06:47.507Z,99.9
2023-03-15T21:08:48.696Z,99.9
2023-03-15T21:10:49.887Z,99.9
2023-03-15T21:11:52.084Z,99.9
2023-03-15T21:13:53.270Z,99.9
2023-03-15T21:15:54.472Z,99.9
2023-03-15T21:17:55.634Z,99.9
2023-03-15T21:24:02.466Z,99.9
2023-03-15T21:26:03.636Z,99.9
2023-03-15T21:28:04.772Z,99.9
2023-03-15T21:30:05.972Z,99.9
2023-03-15T21:32:07.207Z,99.9
2023-03-15T21:34:11.582Z,99.9
2023-03-15T21:36:12.777Z,99.9
2023-03-15T21:38:13.955Z,99.9
2023-03-15T21:40:15.120Z,99.9
2023-03-15T21:42:16.305Z,99.9
2023-03-15T21:44:17.478Z,99.9
2023-03-15T21:46:18.834Z,99.9
2023-03-15T21:48:23.110Z,99.9
2023-03-15T21:50:24.693Z,99.9
2023-03-15T21:52:25.458Z,99.9
2023-03-15T21:54:26.634Z,99.9
2023-03-15T21:56:27.835Z,99.9
2023-03-15T21:58:28.986Z,99.9
2023-03-15T22:00:30.158Z,99.9
2023-03-15T22:02:34.596Z,99.9
2023-03-15T22:04:35.824Z,99.9
2023-03-15T22:06:36.993Z,99.9
2023-03-15T22:07:39.196Z,99.9
2023-03-15T22:09:40.377Z,99.9
2023-03-15T22:13:42.728Z,99.9
2023-03-15T22:19:49.520Z,99.9
2023-03-15T22:21:50.676Z,99.9
2023-03-15T22:23:51.868Z,99.9
2023-03-15T22:25:53.070Z,99.9
2023-03-15T22:27:54.233Z,99.9
2023-03-15T22:29:58.665Z,99.9
2023-03-15T22:31:59.833Z,99.9
2023-03-15T22:34:02.964Z,99.9
2023-03-15T22:36:02.232Z,99.9
2023-03-15T22:38:03.375Z,99.9
2023-03-15T22:40:04.531Z,99.9
2023-03-15T22:42:05.706Z,99.9
2023-03-15T22:44:10.163Z,99.9
2023-03-15T22:46:11.460Z,99.9
2023-03-15T22:48:12.521Z,99.9
2023-03-15T22:50:13.717Z,99.9
2023-03-15T22:54:16.069Z,99.9
2023-03-15T22:58:21.670Z,99.9
2023-03-15T23:00:23.056Z,99.9
2023-03-15T23:02:24.030Z,99.9
2023-03-15T23:04:52.560Z,99.9
2023-03-15T23:06:53.648Z,99.9
2023-03-15T23:08:54.816Z,99.9
2023-03-15T23:10:59.282Z,99.9
2023-03-15T23:13:00.459Z,99.9
2023-03-15T23:15:04.020Z,99.9
2023-03-15T23:17:02.827Z,99.9
2023-03-15T23:19:03.977Z,99.9
2023-03-15T23:21:05.162Z,99.9
2023-03-15T23:23:06.350Z,99.9
2023-03-15T23:29:13.142Z,99.9
2023-03-15T23:31:14.390Z,99.9
2023-03-15T23:33:15.493Z,99.9
2023-03-15T23:35:16.694Z,99.9
2023-03-15T23:37:17.852Z,99.9
2023-03-15T23:39:22.314Z,99.9
2023-03-15T23:41:23.531Z,99.9
2023-03-15T23:43:24.661Z,99.9
2023-03-15T23:45:25.832Z,99.9
2023-03-15T23:47:27.125Z,99.9
2023-03-15T23:49:28.223Z,99.9
2023-03-15T23:51:29.418Z,99.9
2023-03-15T23:53:33.877Z,99.9
2023-03-15T23:55:35.035Z,99.9
2023-03-15T23:58:38.444Z,99.9
